createdAt,value
2018-05-18T00:00:15.760Z,8.60
2018-05-18T00:02:43.376Z,8.60
2018-05-18T00:05:11.804Z,8.60
2018-05-18T00:07:39.410Z,8.60
2018-05-18T00:10:07.808Z,8.60
2018-05-18T00:12:35.418Z,8.60
2018-05-18T00:15:03.023Z,8.60
2018-05-18T00:17:30.632Z,8.60
2018-05-18T00:19:58.236Z,8.60
2018-05-18T00:22:25.847Z,8.60
2018-05-18T00:24:53.464Z,8.60
2018-05-18T00:27:21.075Z,8.60
2018-05-18T00:29:48.693Z,8.60
2018-05-18T00:32:16.320Z,8.50
2018-05-18T00:34:44.695Z,8.60
2018-05-18T00:37:13.071Z,8.50
2018-05-18T00:39:41.476Z,8.50
2018-05-18T00:42:09.080Z,8.50
2018-05-18T00:44:36.700Z,8.50
2018-05-18T00:47:04.316Z,8.50
2018-05-18T00:49:31.912Z,8.50
2018-05-18T00:51:59.528Z,8.50
2018-05-18T00:54:27.148Z,8.50
2018-05-18T00:56:54.768Z,8.60
2018-05-18T00:59:23.133Z,8.60
2018-05-18T01:01:50.753Z,8.60
2018-05-18T01:04:18.368Z,8.50
2018-05-18T01:06:46.738Z,8.50
2018-05-18T01:09:15.148Z,8.50
2018-05-18T01:11:42.811Z,8.50
2018-05-18T01:14:10.412Z,8.50
2018-05-18T01:16:38.027Z,8.50
2018-05-18T01:19:05.627Z,8.40
2018-05-18T01:21:33.240Z,8.40
2018-05-18T01:24:00.855Z,8.50
2018-05-18T01:26:28.455Z,8.50
2018-05-18T01:28:56.836Z,8.50
2018-05-18T01:31:24.451Z,8.50
2018-05-18T01:33:52.100Z,8.50
2018-05-18T01:36:19.703Z,8.60
2018-05-18T01:38:48.081Z,8.60
2018-05-18T01:41:16.458Z,8.60
2018-05-18T01:43:44.832Z,8.60
2018-05-18T01:46:13.232Z,8.60
2018-05-18T01:48:40.832Z,8.50
2018-05-18T01:51:08.448Z,8.50
2018-05-18T01:53:36.057Z,8.60
2018-05-18T01:56:03.675Z,8.50
2018-05-18T01:58:31.291Z,8.60
2018-05-18T02:00:58.895Z,8.60
2018-05-18T02:03:26.516Z,8.60
2018-05-18T02:05:54.132Z,8.60
2018-05-18T02:08:21.739Z,8.50
2018-05-18T02:10:49.357Z,8.50
2018-05-18T02:13:16.976Z,8.50
2018-05-18T02:15:45.352Z,8.50
2018-05-18T02:18:13.728Z,8.50
2018-05-18T02:20:42.117Z,8.50
2018-05-18T02:23:09.742Z,8.40
2018-05-18T02:25:37.351Z,8.60
2018-05-18T02:28:04.972Z,8.50
2018-05-18T02:30:33.344Z,8.60
2018-05-18T02:33:00.969Z,8.60
2018-05-18T02:35:28.588Z,8.60
2018-05-18T02:37:56.960Z,8.60
2018-05-18T02:40:25.356Z,8.60
2018-05-18T02:42:52.968Z,8.60
2018-05-18T02:45:20.576Z,8.60
2018-05-18T02:47:48.192Z,8.60
2018-05-18T02:50:15.797Z,8.60
2018-05-18T02:52:43.438Z,8.60
2018-05-18T02:55:11.824Z,8.60
2018-05-18T02:57:39.436Z,8.60
2018-05-18T03:00:07.053Z,8.60
2018-05-18T03:02:34.668Z,8.60
2018-05-18T03:05:02.287Z,8.50
2018-05-18T03:07:29.911Z,8.50
2018-05-18T03:09:58.288Z,8.50
2018-05-18T03:12:26.679Z,8.60
2018-05-18T03:14:54.333Z,8.50
2018-05-18T03:17:22.708Z,8.60
2018-05-18T03:19:50.320Z,8.60
2018-05-18T03:22:17.970Z,8.70
2018-05-18T03:24:45.616Z,8.70
2018-05-18T03:27:13.223Z,8.70
2018-05-18T03:29:40.831Z,8.80
2018-05-18T03:32:08.443Z,8.80
2018-05-18T03:34:36.068Z,8.70
2018-05-18T03:37:03.696Z,8.80
2018-05-18T03:39:31.318Z,8.80
2018-05-18T03:41:58.924Z,8.80
2018-05-18T03:44:26.543Z,8.80
2018-05-18T03:46:54.165Z,8.80
2018-05-18T03:49:21.767Z,8.80
2018-05-18T03:51:49.383Z,8.90
2018-05-18T03:54:16.995Z,8.90
2018-05-18T03:56:45.395Z,8.90
2018-05-18T03:59:12.996Z,8.90
2018-05-18T04:01:52.617Z,9.00
2018-05-18T04:04:32.224Z,9.00
2018-05-18T04:07:12.444Z,9.10
2018-05-18T04:09:40.047Z,9.10
2018-05-18T04:12:07.664Z,9.20
2018-05-18T04:14:35.283Z,9.20
2018-05-18T04:17:02.907Z,9.20
2018-05-18T04:19:31.303Z,9.30
2018-05-18T04:21:59.772Z,9.30
2018-05-18T04:24:28.159Z,9.50
2018-05-18T04:26:56.540Z,9.60
2018-05-18T04:29:24.909Z,9.50
2018-05-18T04:31:53.320Z,9.60
2018-05-18T04:34:20.925Z,9.50
2018-05-18T04:36:48.552Z,9.70
2018-05-18T04:39:16.175Z,9.70
2018-05-18T04:41:43.785Z,9.70
2018-05-18T04:44:11.408Z,9.70
2018-05-18T04:46:39.032Z,9.70
2018-05-18T04:49:07.404Z,9.70
2018-05-18T04:51:35.026Z,9.70
2018-05-18T04:54:02.653Z,9.70
2018-05-18T04:56:30.272Z,9.70
2018-05-18T04:58:57.909Z,9.70
2018-05-18T05:01:25.532Z,9.60
2018-05-18T05:03:53.148Z,9.50
2018-05-18T05:06:20.768Z,9.50
2018-05-18T05:08:48.411Z,9.40
2018-05-18T05:11:16.020Z,9.50
2018-05-18T05:13:43.649Z,9.50
2018-05-18T05:16:11.268Z,9.40
2018-05-18T05:18:38.885Z,9.60
2018-05-18T05:21:06.497Z,9.60
2018-05-18T05:23:34.930Z,9.90
2018-05-18T05:26:02.528Z,9.90
2018-05-18T05:28:30.920Z,10.20
2018-05-18T05:30:59.307Z,10.40
2018-05-18T05:33:26.924Z,10.30
2018-05-18T05:35:54.536Z,10.40
2018-05-18T05:38:22.172Z,10.40
2018-05-18T05:40:50.559Z,10.60
2018-05-18T05:43:18.976Z,10.70
2018-05-18T05:45:46.609Z,10.60
2018-05-18T05:48:14.228Z,10.70
2018-05-18T05:50:41.843Z,10.70
2018-05-18T05:53:09.452Z,10.80
2018-05-18T05:55:37.104Z,10.90
2018-05-18T05:58:04.724Z,11.00
2018-05-18T06:00:32.332Z,11.10
2018-05-18T06:02:59.956Z,11.00
2018-05-18T06:05:27.659Z,11.20
2018-05-18T06:07:55.280Z,11.30
2018-05-18T06:10:23.664Z,11.40
2018-05-18T06:12:51.279Z,11.40
2018-05-18T06:15:18.957Z,11.50
2018-05-18T06:17:46.580Z,11.50
2018-05-18T06:20:14.972Z,11.60
2018-05-18T06:22:43.355Z,11.80
2018-05-18T06:25:11.740Z,12.00
2018-05-18T06:27:39.370Z,11.90
2018-05-18T06:30:07.749Z,11.90
2018-05-18T06:32:35.383Z,11.90
2018-05-18T06:35:03.187Z,12.00
2018-05-18T06:37:30.751Z,11.90
2018-05-18T06:39:59.139Z,11.90
2018-05-18T06:42:26.745Z,11.80
2018-05-18T06:44:54.369Z,12.00
2018-05-18T06:47:21.983Z,12.00
2018-05-18T06:49:49.632Z,11.90
2018-05-18T06:52:17.260Z,12.00
2018-05-18T06:54:44.868Z,12.00
2018-05-18T06:57:13.256Z,12.10
2018-05-18T06:59:41.646Z,12.30
2018-05-18T07:02:09.260Z,12.20
2018-05-18T07:04:36.894Z,12.50
2018-05-18T07:07:04.551Z,12.40
2018-05-18T07:09:32.173Z,12.60
2018-05-18T07:12:00.548Z,13.20
2018-05-18T07:14:28.932Z,13.30
2018-05-18T07:16:57.321Z,13.30
2018-05-18T07:19:24.932Z,13.30
2018-05-18T07:21:52.572Z,13.40
2018-05-18T07:24:20.191Z,13.30
2018-05-18T07:26:48.564Z,13.10
2018-05-18T07:29:16.952Z,13.10
2018-05-18T07:31:44.576Z,13.10
2018-05-18T07:34:12.993Z,13.10
2018-05-18T07:36:40.617Z,13.10
2018-05-18T07:39:08.241Z,13.30
2018-05-18T07:41:35.848Z,13.40
2018-05-18T07:44:03.537Z,13.50
2018-05-18T07:46:31.184Z,13.50
2018-05-18T07:48:59.563Z,13.70
2018-05-18T07:51:28.012Z,13.60
2018-05-18T07:56:29.532Z,13.60
2018-05-18T07:58:57.176Z,13.50
2018-05-18T08:01:25.580Z,13.70
2018-05-18T08:03:53.212Z,13.60
2018-05-18T08:06:21.608Z,13.70
2018-05-18T08:08:49.216Z,13.60
2018-05-18T08:11:16.864Z,13.80
2018-05-18T08:13:44.480Z,13.90
2018-05-18T08:16:12.096Z,14.00
2018-05-18T08:18:39.712Z,14.10
2018-05-18T08:21:07.325Z,14.10
2018-05-18T08:23:42.217Z,14.50
2018-05-18T08:26:09.872Z,14.60
2018-05-18T08:28:49.489Z,14.80
2018-05-18T08:31:17.108Z,15.00
2018-05-18T08:33:44.732Z,15.50
2018-05-18T08:36:12.384Z,15.40
2018-05-18T08:38:40.004Z,15.60
2018-05-18T08:41:07.632Z,15.90
2018-05-18T08:43:35.259Z,15.90
2018-05-18T08:46:02.868Z,15.90
2018-05-18T08:48:30.492Z,16.10
2018-05-18T08:50:58.121Z,16.20
2018-05-18T08:53:26.495Z,16.20
2018-05-18T08:55:54.913Z,16.10
2018-05-18T08:58:22.536Z,16.00
2018-05-18T09:00:50.907Z,16.00
2018-05-18T09:03:19.287Z,16.20
2018-05-18T09:05:47.664Z,15.90
2018-05-18T09:08:16.044Z,15.90
2018-05-18T09:10:44.437Z,14.70
2018-05-18T09:13:12.067Z,16.00
2018-05-18T09:15:39.686Z,16.10
2018-05-18T09:18:07.303Z,16.10
2018-05-18T09:20:35.688Z,15.90
2018-05-18T09:23:04.064Z,16.50
2018-05-18T09:25:32.459Z,16.50
2018-05-18T09:28:01.313Z,16.40
2018-05-18T09:30:29.710Z,16.30
2018-05-18T09:32:57.337Z,16.20
2018-05-18T09:35:24.947Z,16.10
2018-05-18T09:37:52.564Z,16.20
2018-05-18T09:40:20.184Z,16.10
2018-05-18T09:42:47.794Z,16.00
2018-05-18T09:45:16.193Z,15.80
2018-05-18T09:47:43.825Z,15.70
2018-05-18T09:50:12.327Z,15.60
2018-05-18T09:52:40.719Z,15.30
2018-05-18T09:55:08.443Z,15.20
2018-05-18T09:57:36.041Z,15.20
2018-05-18T10:00:03.701Z,15.10
2018-05-18T10:02:31.399Z,15.70
2018-05-18T10:04:59.020Z,15.60
2018-05-18T10:07:26.653Z,15.60
2018-05-18T10:09:55.039Z,15.80
2018-05-18T10:12:23.520Z,15.70
2018-05-18T10:14:51.073Z,15.60
2018-05-18T10:17:19.480Z,15.90
2018-05-18T10:19:47.104Z,15.80
2018-05-18T10:22:15.565Z,15.80
2018-05-18T10:24:43.179Z,15.70
2018-05-18T10:27:10.807Z,15.60
2018-05-18T10:29:39.187Z,15.30
2018-05-18T10:32:07.556Z,15.30
2018-05-18T10:34:35.176Z,15.30
2018-05-18T10:37:02.796Z,15.30
2018-05-18T10:39:30.423Z,15.00
2018-05-18T10:41:58.059Z,14.90
2018-05-18T10:44:25.711Z,14.50
2018-05-18T10:46:53.344Z,14.70
2018-05-18T10:49:21.053Z,14.80
2018-05-18T10:51:48.673Z,15.10
2018-05-18T10:54:16.293Z,15.10
2018-05-18T10:56:43.920Z,15.50
2018-05-18T10:59:11.544Z,15.60
2018-05-18T11:01:39.179Z,15.80
2018-05-18T11:04:06.788Z,15.80
2018-05-18T11:06:34.410Z,15.80
2018-05-18T11:09:03.253Z,16.00
2018-05-18T11:11:31.315Z,15.90
2018-05-18T11:13:59.045Z,15.80
2018-05-18T11:16:26.588Z,16.00
2018-05-18T11:18:54.968Z,15.90
2018-05-18T11:21:23.347Z,16.20
2018-05-18T11:23:51.725Z,16.50
2018-05-18T11:26:20.205Z,16.70
2018-05-18T11:28:47.771Z,16.60
2018-05-18T11:31:16.166Z,17.00
2018-05-18T11:33:43.779Z,16.90
2018-05-18T11:36:11.436Z,16.90
2018-05-18T11:38:39.061Z,17.00
2018-05-18T11:41:06.668Z,17.10
2018-05-18T11:43:35.055Z,17.10
2018-05-18T11:46:03.444Z,17.50
2018-05-18T11:48:31.832Z,17.40
2018-05-18T11:50:59.474Z,17.40
2018-05-18T11:53:27.809Z,17.30
2018-05-18T11:55:55.389Z,17.30
2018-05-18T11:58:22.956Z,17.20
2018-05-18T12:00:51.301Z,17.60
2018-05-18T12:03:18.865Z,17.60
2018-05-18T12:05:46.437Z,17.50
2018-05-18T12:08:14.027Z,17.40
2018-05-18T12:10:41.601Z,17.60
2018-05-18T12:13:09.169Z,17.70
2018-05-18T12:15:36.749Z,17.90
2018-05-18T12:18:04.332Z,18.30
2018-05-18T12:20:31.914Z,18.70
2018-05-18T12:23:00.237Z,18.50
2018-05-18T12:25:27.805Z,18.50
2018-05-18T12:27:55.373Z,19.00
2018-05-18T12:30:22.969Z,18.60
2018-05-18T12:32:51.297Z,18.20
2018-05-18T12:35:18.867Z,18.20
2018-05-18T12:37:46.445Z,18.50
2018-05-18T12:40:14.013Z,18.80
2018-05-18T12:42:42.350Z,20.10
2018-05-18T12:45:09.986Z,20.00
2018-05-18T12:47:38.281Z,20.50
2018-05-18T12:50:05.849Z,20.40
2018-05-18T12:52:33.417Z,20.30
2018-05-18T12:55:00.993Z,20.80
2018-05-18T12:57:28.568Z,21.50
2018-05-18T12:59:56.909Z,22.20
2018-05-18T13:02:24.476Z,22.20
2018-05-18T13:04:52.050Z,22.00
2018-05-18T13:07:19.620Z,22.60
2018-05-18T13:09:47.952Z,24.60
2018-05-18T13:12:15.702Z,24.50
2018-05-18T13:14:43.290Z,24.80
2018-05-18T13:17:10.861Z,25.40
2018-05-18T13:19:38.437Z,25.30
2018-05-18T13:22:06.781Z,25.40
2018-05-18T13:24:34.348Z,25.40
2018-05-18T13:27:01.918Z,25.50
2018-05-18T13:29:30.269Z,24.80
2018-05-18T13:31:57.849Z,24.80
2018-05-18T13:34:25.434Z,25.30
2018-05-18T13:36:53.033Z,24.50
2018-05-18T13:39:20.613Z,24.30
2018-05-18T13:41:49.689Z,23.40
2018-05-18T13:44:17.264Z,23.40
2018-05-18T13:46:44.865Z,24.00
2018-05-18T13:49:13.201Z,24.70
2018-05-18T13:51:40.870Z,24.70
2018-05-18T13:54:08.392Z,25.10
2018-05-18T13:56:35.961Z,24.50
2018-05-18T13:59:03.566Z,24.50
2018-05-18T14:01:31.928Z,24.40
2018-05-18T14:03:59.493Z,24.40
2018-05-18T14:06:27.056Z,24.60
2018-05-18T14:08:55.396Z,25.80
2018-05-18T14:11:22.964Z,25.80
2018-05-18T14:13:50.541Z,25.80
2018-05-18T14:16:18.112Z,26.60
2018-05-18T14:18:46.445Z,27.10
2018-05-18T14:21:14.013Z,27.00
2018-05-18T14:23:41.586Z,27.10
2018-05-18T14:26:09.149Z,26.70
2018-05-18T14:28:36.737Z,26.70
2018-05-18T14:31:04.353Z,26.40
2018-05-18T14:33:31.913Z,27.80
2018-05-18T14:35:59.497Z,28.00
2018-05-18T14:38:27.829Z,25.50
2018-05-18T14:40:55.401Z,25.50
2018-05-18T14:43:22.961Z,25.50
2018-05-18T14:45:50.573Z,25.70
2018-05-18T14:48:18.152Z,25.40
2018-05-18T14:50:45.724Z,25.00
2018-05-18T14:53:13.298Z,25.10
2018-05-18T14:55:40.877Z,25.30
2018-05-18T14:58:08.461Z,25.70
2018-05-18T15:00:36.796Z,26.50
2018-05-18T15:03:04.441Z,26.50
2018-05-18T15:05:32.009Z,26.70
2018-05-18T15:07:59.577Z,25.90
2018-05-18T15:10:27.188Z,24.90
2018-05-18T15:12:54.757Z,25.30
2018-05-18T15:15:22.332Z,25.20
2018-05-18T15:17:49.932Z,25.20
2018-05-18T15:20:17.503Z,25.60
2018-05-18T15:22:45.845Z,25.90
2018-05-18T15:25:13.461Z,25.90
2018-05-18T15:27:41.046Z,25.50
2018-05-18T15:30:08.617Z,25.60
2018-05-18T15:32:36.201Z,25.60
2018-05-18T15:35:03.917Z,25.50
2018-05-18T15:37:31.487Z,26.00
2018-05-18T15:39:59.057Z,25.40
2018-05-18T15:42:26.633Z,24.60
2018-05-18T15:44:54.205Z,24.80
2018-05-18T15:47:22.569Z,24.80
2018-05-18T15:49:50.134Z,24.80
2018-05-18T15:52:17.705Z,24.20
2018-05-18T15:54:46.033Z,23.60
2018-05-18T15:57:13.602Z,23.50
2018-05-18T15:59:41.169Z,23.40
2018-05-18T16:02:08.753Z,23.40
2018-05-18T16:04:37.093Z,24.10
2018-05-18T16:07:04.661Z,24.10
2018-05-18T16:09:32.233Z,23.40
2018-05-18T16:11:59.801Z,23.90
2018-05-18T16:14:28.175Z,24.10
2018-05-18T16:16:56.521Z,23.80
2018-05-18T16:19:24.084Z,23.80
2018-05-18T16:21:51.660Z,23.50
2018-05-18T16:24:19.224Z,22.80
2018-05-18T16:26:46.800Z,22.00
2018-05-18T16:29:15.129Z,21.40
2018-05-18T16:31:42.689Z,21.30
2018-05-18T16:34:10.542Z,21.40
2018-05-18T16:36:38.125Z,21.10
2018-05-18T16:39:05.734Z,20.40
2018-05-18T16:41:33.314Z,19.40
2018-05-18T16:44:01.659Z,19.50
2018-05-18T16:46:32.205Z,19.50
2018-05-18T16:48:59.799Z,19.40
2018-05-18T16:51:27.385Z,19.10
2018-05-18T16:53:54.980Z,18.80
2018-05-18T16:56:22.868Z,19.10
2018-05-18T16:58:50.449Z,19.00
2018-05-18T17:01:18.038Z,18.80
2018-05-18T17:03:46.381Z,18.00
2018-05-18T17:06:14.740Z,17.90
2018-05-18T17:08:42.313Z,17.70
2018-05-18T17:11:09.903Z,17.90
2018-05-18T17:13:39.206Z,17.70
2018-05-18T17:16:07.545Z,17.80
2018-05-18T17:18:35.119Z,17.70
2018-05-18T17:21:02.709Z,17.80
2018-05-18T17:23:31.065Z,18.00
2018-05-18T17:25:58.750Z,17.90
2018-05-18T17:28:26.261Z,18.00
2018-05-18T17:30:53.839Z,17.70
2018-05-18T17:33:21.405Z,17.50
2018-05-18T17:35:48.981Z,17.60
2018-05-18T17:38:17.333Z,17.20
2018-05-18T17:40:44.905Z,17.10
2018-05-18T17:43:12.485Z,17.00
2018-05-18T17:45:40.853Z,16.40
2018-05-18T17:48:09.198Z,16.30
2018-05-18T17:50:36.771Z,16.20
2018-05-18T17:53:04.442Z,16.10
2018-05-18T17:55:32.794Z,15.50
2018-05-18T17:58:00.370Z,15.40
2018-05-18T18:00:27.950Z,15.10
2018-05-18T18:02:56.286Z,14.30
2018-05-18T18:05:24.229Z,14.20
2018-05-18T18:07:52.111Z,14.10
2018-05-18T18:10:19.673Z,13.70
2018-05-18T18:12:47.269Z,13.10
2018-05-18T18:15:15.594Z,12.90
2018-05-18T18:17:43.169Z,12.80
2018-05-18T18:20:10.743Z,12.80
2018-05-18T18:22:38.305Z,12.60
2018-05-18T18:25:05.881Z,12.50
2018-05-18T18:27:34.222Z,12.20
2018-05-18T18:30:01.810Z,12.10
2018-05-18T18:32:30.157Z,12.10
2018-05-18T18:34:58.108Z,12.00
2018-05-18T18:37:25.684Z,11.90
2018-05-18T18:39:53.253Z,11.80
2018-05-18T18:42:21.598Z,11.50
2018-05-18T18:44:49.180Z,11.40
2018-05-18T18:47:16.773Z,11.10
2018-05-18T18:49:45.117Z,10.80
2018-05-18T18:52:12.772Z,10.80
2018-05-18T18:54:41.054Z,10.80
2018-05-18T18:57:08.652Z,10.80
2018-05-18T18:59:36.988Z,10.90
2018-05-18T19:02:04.644Z,10.80
2018-05-18T19:04:32.227Z,10.90
2018-05-18T19:06:59.807Z,11.00
2018-05-18T19:09:28.145Z,11.00
2018-05-18T19:11:55.713Z,10.90
2018-05-18T19:14:24.081Z,11.00
2018-05-18T19:16:51.656Z,10.90
2018-05-18T19:19:19.247Z,10.90
2018-05-18T19:21:46.830Z,10.90
2018-05-18T19:24:14.448Z,10.90
2018-05-18T19:26:42.008Z,10.80
2018-05-18T19:29:10.382Z,10.80
2018-05-18T19:31:38.761Z,10.70
2018-05-18T19:34:07.133Z,10.70
2018-05-18T19:36:34.766Z,10.60
2018-05-18T19:39:02.347Z,10.60
2018-05-18T19:41:30.275Z,10.60
2018-05-18T19:43:57.862Z,10.50
2018-05-18T19:46:25.446Z,10.40
2018-05-18T19:48:53.786Z,10.10
2018-05-18T19:51:21.374Z,10.10
2018-05-18T19:53:48.957Z,10.00
2018-05-18T19:56:16.535Z,9.90
2018-05-18T19:58:45.035Z,9.70
2018-05-18T20:01:12.621Z,9.50
2018-05-18T20:03:40.234Z,9.40
2018-05-18T20:06:07.819Z,9.30
2018-05-18T20:08:35.432Z,9.20
2018-05-18T20:11:03.768Z,9.20
2018-05-18T20:13:31.342Z,9.10
2018-05-18T20:15:58.905Z,9.20
2018-05-18T20:18:27.279Z,9.40
2018-05-18T20:20:54.837Z,9.30
2018-05-18T20:23:22.429Z,9.40
2018-05-18T20:25:50.000Z,9.50
2018-05-18T20:28:17.557Z,9.50
2018-05-18T20:30:45.145Z,9.50
2018-05-18T20:33:12.721Z,9.60
2018-05-18T20:35:40.281Z,9.60
2018-05-18T20:38:07.868Z,9.60
2018-05-18T20:40:35.449Z,9.60
2018-05-18T20:43:03.009Z,9.60
2018-05-18T20:45:30.574Z,9.60
2018-05-18T20:47:58.141Z,9.60
2018-05-18T20:50:25.709Z,9.60
2018-05-18T20:52:53.280Z,9.60
2018-05-18T20:55:20.837Z,9.50
2018-05-18T20:57:48.432Z,9.50
2018-05-18T21:00:16.764Z,9.50
2018-05-18T21:02:44.318Z,9.40
2018-05-18T21:05:11.892Z,9.50
2018-05-18T21:07:39.442Z,9.40
2018-05-18T21:10:07.352Z,9.40
2018-05-18T21:12:35.685Z,9.40
2018-05-18T21:15:03.252Z,9.30
2018-05-18T21:17:30.825Z,9.40
2018-05-18T21:19:58.388Z,9.40
2018-05-18T21:22:25.953Z,9.30
2018-05-18T21:24:54.312Z,9.40
2018-05-18T21:27:21.889Z,9.30
2018-05-18T21:29:50.218Z,9.30
2018-05-18T21:32:17.789Z,9.30
2018-05-18T21:34:45.355Z,9.30
2018-05-18T21:37:12.913Z,9.30
2018-05-18T21:39:40.502Z,9.30
2018-05-18T21:42:08.838Z,9.30
2018-05-18T21:44:36.397Z,9.20
2018-05-18T21:47:03.973Z,9.20
2018-05-18T21:49:31.541Z,9.20
2018-05-18T21:51:59.110Z,9.10
2018-05-18T21:54:26.681Z,9.10
2018-05-18T21:56:55.009Z,9.00
2018-05-18T21:59:22.580Z,9.00
2018-05-18T22:01:50.137Z,9.00
2018-05-18T22:04:17.729Z,9.00
2018-05-18T22:06:46.104Z,9.00
2018-05-18T22:09:14.472Z,9.00
2018-05-18T22:11:42.096Z,9.00
2018-05-18T22:14:09.758Z,9.10
2018-05-18T22:16:37.432Z,9.00
2018-05-18T22:19:05.040Z,9.10
2018-05-18T22:21:32.661Z,9.00
2018-05-18T22:24:01.043Z,9.00
2018-05-18T22:26:28.651Z,8.90
2018-05-18T22:28:56.267Z,8.90
2018-05-18T22:31:23.871Z,8.90
2018-05-18T22:33:51.487Z,8.90
2018-05-18T22:36:19.105Z,8.90
2018-05-18T22:38:46.710Z,10.00
2018-05-18T22:41:14.332Z,8.90
2018-05-18T22:43:41.947Z,8.80
2018-05-18T22:46:10.332Z,8.80
2018-05-18T22:48:37.944Z,8.70
2018-05-18T22:51:05.560Z,8.70
2018-05-18T22:53:33.176Z,8.70
2018-05-18T22:56:00.784Z,8.60
2018-05-18T22:58:28.399Z,8.50
2018-05-18T23:00:56.804Z,8.50
2018-05-18T23:03:25.931Z,8.50
2018-05-18T23:05:53.565Z,8.40
2018-05-18T23:08:21.934Z,8.40
2018-05-18T23:10:50.311Z,8.50
2018-05-18T23:13:18.679Z,8.40
2018-05-18T23:15:47.060Z,8.40
2018-05-18T23:18:15.448Z,8.40
2018-05-18T23:20:43.829Z,8.30
2018-05-18T23:23:11.439Z,8.30
2018-05-18T23:25:39.140Z,8.30
2018-05-18T23:28:06.705Z,8.30
2018-05-18T23:30:34.606Z,8.20
2018-05-18T23:33:02.223Z,8.20
2018-05-18T23:35:30.593Z,8.10
2018-05-18T23:37:58.980Z,8.00
2018-05-18T23:40:27.356Z,8.00
2018-05-18T23:42:55.913Z,8.00
2018-05-18T23:45:23.533Z,8.00
2018-05-18T23:47:51.137Z,8.00
2018-05-18T23:50:18.770Z,8.00
2018-05-18T23:52:46.380Z,7.90
2018-05-18T23:55:14.747Z,7.90
2018-05-18T23:57:43.127Z,7.90
